sensor_id;sensor_type;location;lat;lon;timestamp;P1;durP1;ratioP1;P2;durP2;ratioP2
35578;SDS011;21687;48.900;9.188;2023-04-03T00:01:45;3.73;;;2.80;;
35578;SDS011;21687;48.900;9.188;2023-04-03T00:04:12;2.60;;;2.40;;
35578;SDS011;21687;48.900;9.188;2023-04-03T00:06:38;5.93;;;3.00;;
35578;SDS011;21687;48.900;9.188;2023-04-03T00:09:04;5.77;;;2.90;;
35578;SDS011;21687;48.900;9.188;2023-04-03T00:11:30;2.63;;;2.43;;
35578;SDS011;21687;48.900;9.188;2023-04-03T00:13:57;5.93;;;2.57;;
35578;SDS011;21687;48.900;9.188;2023-04-03T00:16:23;3.50;;;2.50;;
35578;SDS011;21687;48.900;9.188;2023-04-03T00:18:49;2.60;;;2.40;;
35578;SDS011;21687;48.900;9.188;2023-04-03T00:21:15;3.60;;;2.30;;
35578;SDS011;21687;48.900;9.188;2023-04-03T00:23:42;3.17;;;2.70;;
35578;SDS011;21687;48.900;9.188;2023-04-03T00:26:08;4.47;;;2.83;;
35578;SDS011;21687;48.900;9.188;2023-04-03T00:28:34;4.77;;;2.50;;
35578;SDS011;21687;48.900;9.188;2023-04-03T00:31:01;3.53;;;2.70;;
35578;SDS011;21687;48.900;9.188;2023-04-03T00:33:27;3.00;;;2.57;;
35578;SDS011;21687;48.900;9.188;2023-04-03T00:35:53;2.93;;;2.70;;
35578;SDS011;21687;48.900;9.188;2023-04-03T00:38:19;5.13;;;2.80;;
35578;SDS011;21687;48.900;9.188;2023-04-03T00:40:47;4.33;;;2.43;;
35578;SDS011;21687;48.900;9.188;2023-04-03T00:43:16;3.97;;;2.53;;
35578;SDS011;21687;48.900;9.188;2023-04-03T00:45:46;4.60;;;2.50;;
35578;SDS011;21687;48.900;9.188;2023-04-03T00:48:15;2.60;;;2.40;;
35578;SDS011;21687;48.900;9.188;2023-04-03T00:50:47;6.27;;;2.90;;
35578;SDS011;21687;48.900;9.188;2023-04-03T00:53:18;5.53;;;2.60;;
35578;SDS011;21687;48.900;9.188;2023-04-03T00:55:50;2.90;;;2.53;;
35578;SDS011;21687;48.900;9.188;2023-04-03T00:58:19;4.53;;;2.73;;
35578;SDS011;21687;48.900;9.188;2023-04-03T01:00:51;4.37;;;2.50;;
35578;SDS011;21687;48.900;9.188;2023-04-03T01:03:23;5.33;;;2.70;;
35578;SDS011;21687;48.900;9.188;2023-04-03T01:05:49;4.97;;;2.80;;
35578;SDS011;21687;48.900;9.188;2023-04-03T01:08:16;3.33;;;2.50;;
35578;SDS011;21687;48.900;9.188;2023-04-03T01:10:42;4.23;;;2.50;;
35578;SDS011;21687;48.900;9.188;2023-04-03T01:13:19;3.53;;;2.57;;
35578;SDS011;21687;48.900;9.188;2023-04-03T01:15:56;4.47;;;2.60;;
35578;SDS011;21687;48.900;9.188;2023-04-03T01:18:25;3.10;;;2.67;;
35578;SDS011;21687;48.900;9.188;2023-04-03T01:23:49;2.70;;;2.50;;
35578;SDS011;21687;48.900;9.188;2023-04-03T01:26:24;3.00;;;2.20;;
35578;SDS011;21687;48.900;9.188;2023-04-03T01:28:50;5.90;;;3.07;;
35578;SDS011;21687;48.900;9.188;2023-04-03T01:31:28;3.67;;;2.43;;
35578;SDS011;21687;48.900;9.188;2023-04-03T01:34:04;3.57;;;2.80;;
35578;SDS011;21687;48.900;9.188;2023-04-03T01:36:30;5.40;;;2.83;;
35578;SDS011;21687;48.900;9.188;2023-04-03T01:38:58;6.83;;;2.97;;
35578;SDS011;21687;48.900;9.188;2023-04-03T01:41:25;4.07;;;3.07;;
35578;SDS011;21687;48.900;9.188;2023-04-03T01:43:51;3.00;;;2.70;;
35578;SDS011;21687;48.900;9.188;2023-04-03T01:46:18;3.30;;;2.83;;
35578;SDS011;21687;48.900;9.188;2023-04-03T01:48:45;4.00;;;3.37;;
35578;SDS011;21687;48.900;9.188;2023-04-03T01:51:12;3.30;;;2.70;;
35578;SDS011;21687;48.900;9.188;2023-04-03T01:53:38;3.03;;;2.73;;
35578;SDS011;21687;48.900;9.188;2023-04-03T01:56:05;3.43;;;2.90;;
35578;SDS011;21687;48.900;9.188;2023-04-03T01:58:31;3.20;;;2.87;;
35578;SDS011;21687;48.900;9.188;2023-04-03T02:00:57;3.53;;;2.83;;
35578;SDS011;21687;48.900;9.188;2023-04-03T02:03:24;3.73;;;2.93;;
35578;SDS011;21687;48.900;9.188;2023-04-03T02:05:50;4.40;;;2.97;;
35578;SDS011;21687;48.900;9.188;2023-04-03T02:08:16;3.97;;;2.70;;
35578;SDS011;21687;48.900;9.188;2023-04-03T02:10:48;4.03;;;3.00;;
35578;SDS011;21687;48.900;9.188;2023-04-03T02:13:15;4.33;;;2.80;;
35578;SDS011;21687;48.900;9.188;2023-04-03T02:15:42;2.67;;;2.40;;
35578;SDS011;21687;48.900;9.188;2023-04-03T02:18:10;3.20;;;2.90;;
35578;SDS011;21687;48.900;9.188;2023-04-03T02:20:37;6.30;;;3.80;;
35578;SDS011;21687;48.900;9.188;2023-04-03T02:23:04;4.87;;;2.80;;
35578;SDS011;21687;48.900;9.188;2023-04-03T02:25:31;3.03;;;2.50;;
35578;SDS011;21687;48.900;9.188;2023-04-03T02:27:57;4.50;;;2.93;;
35578;SDS011;21687;48.900;9.188;2023-04-03T02:30:24;3.70;;;2.50;;
35578;SDS011;21687;48.900;9.188;2023-04-03T02:32:50;3.87;;;2.50;;
35578;SDS011;21687;48.900;9.188;2023-04-03T02:35:16;3.07;;;2.53;;
35578;SDS011;21687;48.900;9.188;2023-04-03T02:37:43;3.97;;;2.40;;
35578;SDS011;21687;48.900;9.188;2023-04-03T02:40:09;3.17;;;2.60;;
35578;SDS011;21687;48.900;9.188;2023-04-03T02:42:36;3.23;;;2.63;;
35578;SDS011;21687;48.900;9.188;2023-04-03T02:45:02;3.03;;;2.30;;
35578;SDS011;21687;48.900;9.188;2023-04-03T02:47:29;3.57;;;2.33;;
35578;SDS011;21687;48.900;9.188;2023-04-03T02:49:56;3.60;;;2.50;;
35578;SDS011;21687;48.900;9.188;2023-04-03T02:52:22;3.17;;;2.70;;
35578;SDS011;21687;48.900;9.188;2023-04-03T02:54:48;2.80;;;2.33;;
35578;SDS011;21687;48.900;9.188;2023-04-03T02:57:14;3.13;;;2.30;;
35578;SDS011;21687;48.900;9.188;2023-04-03T02:59:40;3.53;;;2.40;;
35578;SDS011;21687;48.900;9.188;2023-04-03T03:02:07;4.70;;;3.50;;
35578;SDS011;21687;48.900;9.188;2023-04-03T03:04:34;3.37;;;2.30;;
35578;SDS011;21687;48.900;9.188;2023-04-03T03:07:00;5.67;;;2.53;;
35578;SDS011;21687;48.900;9.188;2023-04-03T03:09:27;3.90;;;2.23;;
35578;SDS011;21687;48.900;9.188;2023-04-03T03:11:54;3.57;;;2.50;;
35578;SDS011;21687;48.900;9.188;2023-04-03T03:14:21;3.37;;;2.87;;
35578;SDS011;21687;48.900;9.188;2023-04-03T03:16:48;2.17;;;1.97;;
35578;SDS011;21687;48.900;9.188;2023-04-03T03:19:14;2.20;;;2.00;;
35578;SDS011;21687;48.900;9.188;2023-04-03T03:21:40;3.40;;;2.50;;
35578;SDS011;21687;48.900;9.188;2023-04-03T03:24:07;3.43;;;2.23;;
35578;SDS011;21687;48.900;9.188;2023-04-03T03:26:33;3.77;;;2.30;;
35578;SDS011;21687;48.900;9.188;2023-04-03T03:28:59;4.10;;;2.30;;
35578;SDS011;21687;48.900;9.188;2023-04-03T03:31:26;2.63;;;2.43;;
35578;SDS011;21687;48.900;9.188;2023-04-03T03:33:52;2.60;;;2.40;;
35578;SDS011;21687;48.900;9.188;2023-04-03T03:36:18;4.07;;;2.57;;
35578;SDS011;21687;48.900;9.188;2023-04-03T03:38:45;6.87;;;3.37;;
35578;SDS011;21687;48.900;9.188;2023-04-03T03:41:11;2.53;;;2.33;;
35578;SDS011;21687;48.900;9.188;2023-04-03T03:43:37;4.17;;;2.40;;
35578;SDS011;21687;48.900;9.188;2023-04-03T03:46:04;3.17;;;2.20;;
35578;SDS011;21687;48.900;9.188;2023-04-03T03:48:30;2.73;;;2.20;;
35578;SDS011;21687;48.900;9.188;2023-04-03T03:50:56;3.10;;;2.40;;
35578;SDS011;21687;48.900;9.188;2023-04-03T03:53:22;3.03;;;2.23;;
35578;SDS011;21687;48.900;9.188;2023-04-03T03:55:49;2.57;;;2.30;;
35578;SDS011;21687;48.900;9.188;2023-04-03T03:58:15;2.63;;;2.40;;
35578;SDS011;21687;48.900;9.188;2023-04-03T04:00:41;3.03;;;2.40;;
35578;SDS011;21687;48.900;9.188;2023-04-03T04:03:07;2.20;;;2.00;;
35578;SDS011;21687;48.900;9.188;2023-04-03T04:05:34;3.57;;;2.50;;
35578;SDS011;21687;48.900;9.188;2023-04-03T04:08:00;2.93;;;2.37;;
35578;SDS011;21687;48.900;9.188;2023-04-03T04:10:26;2.53;;;2.33;;
35578;SDS011;21687;48.900;9.188;2023-04-03T04:12:52;3.70;;;2.63;;
35578;SDS011;21687;48.900;9.188;2023-04-03T04:15:19;4.63;;;2.30;;
35578;SDS011;21687;48.900;9.188;2023-04-03T04:17:46;3.20;;;2.70;;
35578;SDS011;21687;48.900;9.188;2023-04-03T04:20:12;3.03;;;2.30;;
35578;SDS011;21687;48.900;9.188;2023-04-03T04:22:39;3.07;;;2.77;;
35578;SDS011;21687;48.900;9.188;2023-04-03T04:25:05;2.80;;;2.60;;
35578;SDS011;21687;48.900;9.188;2023-04-03T04:27:32;2.63;;;2.43;;
35578;SDS011;21687;48.900;9.188;2023-04-03T04:29:58;2.93;;;2.47;;
35578;SDS011;21687;48.900;9.188;2023-04-03T04:32:24;4.50;;;2.60;;
35578;SDS011;21687;48.900;9.188;2023-04-03T04:34:51;2.50;;;2.30;;
35578;SDS011;21687;48.900;9.188;2023-04-03T04:37:17;3.83;;;2.87;;
35578;SDS011;21687;48.900;9.188;2023-04-03T04:39:43;3.33;;;2.30;;
35578;SDS011;21687;48.900;9.188;2023-04-03T04:42:09;4.83;;;2.80;;
35578;SDS011;21687;48.900;9.188;2023-04-03T04:44:38;2.87;;;2.57;;
35578;SDS011;21687;48.900;9.188;2023-04-03T04:47:04;3.47;;;2.77;;
35578;SDS011;21687;48.900;9.188;2023-04-03T04:49:31;3.10;;;2.67;;
35578;SDS011;21687;48.900;9.188;2023-04-03T04:51:57;3.57;;;3.00;;
35578;SDS011;21687;48.900;9.188;2023-04-03T04:54:24;4.07;;;2.60;;
35578;SDS011;21687;48.900;9.188;2023-04-03T04:56:50;2.80;;;2.53;;
35578;SDS011;21687;48.900;9.188;2023-04-03T04:59:16;2.20;;;2.00;;
35578;SDS011;21687;48.900;9.188;2023-04-03T05:01:42;3.73;;;2.37;;
35578;SDS011;21687;48.900;9.188;2023-04-03T05:04:10;3.17;;;2.20;;
35578;SDS011;21687;48.900;9.188;2023-04-03T05:06:37;2.77;;;2.30;;
35578;SDS011;21687;48.900;9.188;2023-04-03T05:09:03;3.50;;;2.50;;
35578;SDS011;21687;48.900;9.188;2023-04-03T05:11:30;4.93;;;2.37;;
35578;SDS011;21687;48.900;9.188;2023-04-03T05:13:56;2.97;;;2.37;;
35578;SDS011;21687;48.900;9.188;2023-04-03T05:16:22;4.20;;;2.50;;
35578;SDS011;21687;48.900;9.188;2023-04-03T05:18:49;3.30;;;2.50;;
35578;SDS011;21687;48.900;9.188;2023-04-03T05:21:15;3.60;;;2.40;;
35578;SDS011;21687;48.900;9.188;2023-04-03T05:23:43;3.80;;;2.70;;
35578;SDS011;21687;48.900;9.188;2023-04-03T05:26:09;4.17;;;2.40;;
35578;SDS011;21687;48.900;9.188;2023-04-03T05:28:35;3.40;;;2.90;;
35578;SDS011;21687;48.900;9.188;2023-04-03T05:31:02;3.53;;;2.67;;
35578;SDS011;21687;48.900;9.188;2023-04-03T05:33:28;4.73;;;2.70;;
35578;SDS011;21687;48.900;9.188;2023-04-03T05:35:54;12.47;;;3.10;;
35578;SDS011;21687;48.900;9.188;2023-04-03T05:38:21;2.57;;;2.33;;
35578;SDS011;21687;48.900;9.188;2023-04-03T05:40:47;3.77;;;2.50;;
35578;SDS011;21687;48.900;9.188;2023-04-03T05:43:13;3.27;;;2.43;;
35578;SDS011;21687;48.900;9.188;2023-04-03T05:45:40;2.60;;;2.40;;
35578;SDS011;21687;48.900;9.188;2023-04-03T05:48:07;3.37;;;2.50;;
35578;SDS011;21687;48.900;9.188;2023-04-03T05:50:34;4.37;;;2.97;;
35578;SDS011;21687;48.900;9.188;2023-04-03T05:53:06;2.60;;;2.40;;
35578;SDS011;21687;48.900;9.188;2023-04-03T05:55:40;4.87;;;2.40;;
35578;SDS011;21687;48.900;9.188;2023-04-03T05:58:06;3.70;;;2.70;;
35578;SDS011;21687;48.900;9.188;2023-04-03T06:00:32;3.17;;;2.70;;
35578;SDS011;21687;48.900;9.188;2023-04-03T06:02:59;4.17;;;2.57;;
35578;SDS011;21687;48.900;9.188;2023-04-03T06:05:25;2.83;;;2.53;;
35578;SDS011;21687;48.900;9.188;2023-04-03T06:07:51;2.80;;;2.60;;
35578;SDS011;21687;48.900;9.188;2023-04-03T06:10:18;4.97;;;2.50;;
35578;SDS011;21687;48.900;9.188;2023-04-03T06:12:45;5.07;;;3.00;;
35578;SDS011;21687;48.900;9.188;2023-04-03T06:15:11;4.30;;;2.63;;
35578;SDS011;21687;48.900;9.188;2023-04-03T06:17:37;3.27;;;2.60;;
35578;SDS011;21687;48.900;9.188;2023-04-03T06:20:04;4.70;;;2.57;;
35578;SDS011;21687;48.900;9.188;2023-04-03T06:22:30;3.90;;;2.50;;
35578;SDS011;21687;48.900;9.188;2023-04-03T06:24:57;2.77;;;2.33;;
35578;SDS011;21687;48.900;9.188;2023-04-03T06:27:23;5.23;;;2.80;;
35578;SDS011;21687;48.900;9.188;2023-04-03T06:29:50;5.63;;;2.77;;
35578;SDS011;21687;48.900;9.188;2023-04-03T06:32:16;2.60;;;2.40;;
35578;SDS011;21687;48.900;9.188;2023-04-03T06:34:42;2.73;;;2.50;;
35578;SDS011;21687;48.900;9.188;2023-04-03T06:37:20;7.10;;;3.10;;
35578;SDS011;21687;48.900;9.188;2023-04-03T06:39:47;4.30;;;2.83;;
35578;SDS011;21687;48.900;9.188;2023-04-03T06:42:14;3.30;;;2.40;;
35578;SDS011;21687;48.900;9.188;2023-04-03T06:44:41;4.07;;;2.70;;
35578;SDS011;21687;48.900;9.188;2023-04-03T06:47:09;4.03;;;2.70;;
35578;SDS011;21687;48.900;9.188;2023-04-03T06:49:37;2.73;;;2.53;;
35578;SDS011;21687;48.900;9.188;2023-04-03T06:52:04;4.13;;;2.77;;
35578;SDS011;21687;48.900;9.188;2023-04-03T06:54:30;3.07;;;2.77;;
35578;SDS011;21687;48.900;9.188;2023-04-03T06:56:57;5.23;;;2.90;;
35578;SDS011;21687;48.900;9.188;2023-04-03T06:59:24;3.10;;;2.77;;
35578;SDS011;21687;48.900;9.188;2023-04-03T07:01:50;9.27;;;2.80;;
35578;SDS011;21687;48.900;9.188;2023-04-03T07:04:17;5.20;;;2.97;;
35578;SDS011;21687;48.900;9.188;2023-04-03T07:06:45;3.80;;;2.83;;
35578;SDS011;21687;48.900;9.188;2023-04-03T07:09:13;5.73;;;2.90;;
35578;SDS011;21687;48.900;9.188;2023-04-03T07:11:39;3.93;;;3.43;;
35578;SDS011;21687;48.900;9.188;2023-04-03T07:14:05;4.77;;;2.70;;
35578;SDS011;21687;48.900;9.188;2023-04-03T07:16:33;7.57;;;2.60;;
35578;SDS011;21687;48.900;9.188;2023-04-03T07:19:00;3.10;;;2.67;;
35578;SDS011;21687;48.900;9.188;2023-04-03T07:21:27;5.70;;;3.10;;
35578;SDS011;21687;48.900;9.188;2023-04-03T07:23:54;4.13;;;3.03;;
35578;SDS011;21687;48.900;9.188;2023-04-03T07:26:21;4.47;;;2.60;;
35578;SDS011;21687;48.900;9.188;2023-04-03T07:28:47;6.43;;;2.80;;
35578;SDS011;21687;48.900;9.188;2023-04-03T07:31:15;5.97;;;2.43;;
35578;SDS011;21687;48.900;9.188;2023-04-03T07:33:43;4.37;;;3.10;;
35578;SDS011;21687;48.900;9.188;2023-04-03T07:36:11;3.60;;;2.57;;
35578;SDS011;21687;48.900;9.188;2023-04-03T07:38:42;6.17;;;2.77;;
35578;SDS011;21687;48.900;9.188;2023-04-03T07:41:10;8.70;;;3.83;;
35578;SDS011;21687;48.900;9.188;2023-04-03T07:43:42;2.97;;;2.67;;
35578;SDS011;21687;48.900;9.188;2023-04-03T07:46:10;5.47;;;2.90;;
35578;SDS011;21687;48.900;9.188;2023-04-03T07:48:37;3.43;;;2.67;;
35578;SDS011;21687;48.900;9.188;2023-04-03T07:51:04;6.97;;;2.90;;
35578;SDS011;21687;48.900;9.188;2023-04-03T07:53:30;3.00;;;2.70;;
35578;SDS011;21687;48.900;9.188;2023-04-03T07:55:58;2.83;;;2.50;;
35578;SDS011;21687;48.900;9.188;2023-04-03T07:58:27;2.67;;;2.30;;
35578;SDS011;21687;48.900;9.188;2023-04-03T08:00:54;4.27;;;2.83;;
35578;SDS011;21687;48.900;9.188;2023-04-03T08:03:21;4.83;;;2.83;;
35578;SDS011;21687;48.900;9.188;2023-04-03T08:05:48;5.27;;;3.07;;
35578;SDS011;21687;48.900;9.188;2023-04-03T08:08:16;5.10;;;2.60;;
35578;SDS011;21687;48.900;9.188;2023-04-03T08:10:47;5.17;;;2.60;;
35578;SDS011;21687;48.900;9.188;2023-04-03T08:13:15;2.90;;;2.60;;
35578;SDS011;21687;48.900;9.188;2023-04-03T08:15:41;3.80;;;2.63;;
35578;SDS011;21687;48.900;9.188;2023-04-03T08:18:08;3.77;;;2.80;;
35578;SDS011;21687;48.900;9.188;2023-04-03T08:20:34;4.57;;;2.30;;
35578;SDS011;21687;48.900;9.188;2023-04-03T08:23:02;5.20;;;2.90;;
35578;SDS011;21687;48.900;9.188;2023-04-03T08:25:28;3.83;;;2.33;;
35578;SDS011;21687;48.900;9.188;2023-04-03T08:27:55;5.80;;;2.70;;
35578;SDS011;21687;48.900;9.188;2023-04-03T08:30:21;4.83;;;2.30;;
35578;SDS011;21687;48.900;9.188;2023-04-03T08:32:47;3.07;;;2.60;;
35578;SDS011;21687;48.900;9.188;2023-04-03T08:35:13;3.30;;;2.40;;
35578;SDS011;21687;48.900;9.188;2023-04-03T08:37:40;6.60;;;2.60;;
35578;SDS011;21687;48.900;9.188;2023-04-03T08:40:07;7.40;;;2.70;;
35578;SDS011;21687;48.900;9.188;2023-04-03T08:45:15;8.10;;;2.67;;
35578;SDS011;21687;48.900;9.188;2023-04-03T08:48:04;4.93;;;2.50;;
35578;SDS011;21687;48.900;9.188;2023-04-03T08:50:39;5.40;;;2.60;;
35578;SDS011;21687;48.900;9.188;2023-04-03T08:53:15;4.40;;;2.30;;
35578;SDS011;21687;48.900;9.188;2023-04-03T08:55:53;2.70;;;2.30;;
35578;SDS011;21687;48.900;9.188;2023-04-03T08:58:21;6.03;;;3.10;;
35578;SDS011;21687;48.900;9.188;2023-04-03T09:04:14;3.70;;;2.60;;
35578;SDS011;21687;48.900;9.188;2023-04-03T09:06:52;5.60;;;2.37;;
35578;SDS011;21687;48.900;9.188;2023-04-03T09:17:15;3.47;;;2.37;;
35578;SDS011;21687;48.900;9.188;2023-04-03T09:19:58;2.93;;;2.00;;
35578;SDS011;21687;48.900;9.188;2023-04-03T09:22:46;4.37;;;2.10;;
35578;SDS011;21687;48.900;9.188;2023-04-03T09:25:18;2.33;;;2.10;;
35578;SDS011;21687;48.900;9.188;2023-04-03T09:28:04;4.93;;;2.30;;
35578;SDS011;21687;48.900;9.188;2023-04-03T09:30:34;5.60;;;2.40;;
35578;SDS011;21687;48.900;9.188;2023-04-03T09:33:01;2.97;;;2.17;;
35578;SDS011;21687;48.900;9.188;2023-04-03T09:35:29;4.57;;;2.20;;
35578;SDS011;21687;48.900;9.188;2023-04-03T09:38:01;2.93;;;1.97;;
35578;SDS011;21687;48.900;9.188;2023-04-03T09:40:35;2.07;;;1.90;;
35578;SDS011;21687;48.900;9.188;2023-04-03T09:45:51;4.47;;;1.80;;
35578;SDS011;21687;48.900;9.188;2023-04-03T09:48:20;2.57;;;2.20;;
35578;SDS011;21687;48.900;9.188;2023-04-03T09:58:42;4.07;;;2.20;;
35578;SDS011;21687;48.900;9.188;2023-04-03T10:01:31;3.57;;;1.80;;
35578;SDS011;21687;48.900;9.188;2023-04-03T10:04:05;5.67;;;1.80;;
35578;SDS011;21687;48.900;9.188;2023-04-03T10:06:45;1.90;;;1.77;;
35578;SDS011;21687;48.900;9.188;2023-04-03T10:14:30;3.07;;;2.10;;
35578;SDS011;21687;48.900;9.188;2023-04-03T10:19:48;3.57;;;1.90;;
35578;SDS011;21687;48.900;9.188;2023-04-03T10:27:42;4.63;;;1.80;;
35578;SDS011;21687;48.900;9.188;2023-04-03T10:33:05;1.87;;;1.67;;
35578;SDS011;21687;48.900;9.188;2023-04-03T10:41:54;2.93;;;1.57;;
35578;SDS011;21687;48.900;9.188;2023-04-03T10:44:28;1.60;;;1.50;;
35578;SDS011;21687;48.900;9.188;2023-04-03T10:52:54;2.27;;;1.70;;
35578;SDS011;21687;48.900;9.188;2023-04-03T10:55:34;3.00;;;1.63;;
35578;SDS011;21687;48.900;9.188;2023-04-03T10:58:27;2.20;;;1.60;;
35578;SDS011;21687;48.900;9.188;2023-04-03T11:00:58;1.77;;;1.40;;
35578;SDS011;21687;48.900;9.188;2023-04-03T11:03:54;3.10;;;1.53;;
35578;SDS011;21687;48.900;9.188;2023-04-03T11:06:24;5.03;;;1.67;;
35578;SDS011;21687;48.900;9.188;2023-04-03T11:09:03;3.57;;;1.63;;
35578;SDS011;21687;48.900;9.188;2023-04-03T11:11:51;2.33;;;1.40;;
35578;SDS011;21687;48.900;9.188;2023-04-03T11:14:45;3.00;;;1.60;;
35578;SDS011;21687;48.900;9.188;2023-04-03T11:17:21;1.70;;;1.60;;
35578;SDS011;21687;48.900;9.188;2023-04-03T11:23:06;3.73;;;2.07;;
35578;SDS011;21687;48.900;9.188;2023-04-03T11:25:50;4.20;;;1.70;;
35578;SDS011;21687;48.900;9.188;2023-04-03T11:28:20;2.10;;;1.60;;
35578;SDS011;21687;48.900;9.188;2023-04-03T11:31:02;2.10;;;1.70;;
35578;SDS011;21687;48.900;9.188;2023-04-03T11:36:54;3.50;;;1.80;;
35578;SDS011;21687;48.900;9.188;2023-04-03T11:39:33;2.20;;;1.80;;
35578;SDS011;21687;48.900;9.188;2023-04-03T11:42:13;2.40;;;1.80;;
35578;SDS011;21687;48.900;9.188;2023-04-03T11:44:40;2.13;;;1.63;;
35578;SDS011;21687;48.900;9.188;2023-04-03T11:47:08;5.10;;;1.93;;
35578;SDS011;21687;48.900;9.188;2023-04-03T12:08:25;2.03;;;1.80;;
35578;SDS011;21687;48.900;9.188;2023-04-03T12:16:26;3.07;;;1.80;;
35578;SDS011;21687;48.900;9.188;2023-04-03T12:22:04;2.77;;;2.07;;
35578;SDS011;21687;48.900;9.188;2023-04-03T12:26:44;2.83;;;1.77;;
35578;SDS011;21687;48.900;9.188;2023-04-03T12:34:49;2.20;;;1.60;;
35578;SDS011;21687;48.900;9.188;2023-04-03T12:42:54;3.57;;;1.90;;
35578;SDS011;21687;48.900;9.188;2023-04-03T12:45:25;3.10;;;1.57;;
35578;SDS011;21687;48.900;9.188;2023-04-03T12:47:55;1.60;;;1.50;;
35578;SDS011;21687;48.900;9.188;2023-04-03T12:53:04;3.43;;;1.83;;
35578;SDS011;21687;48.900;9.188;2023-04-03T12:55:43;1.90;;;1.40;;
35578;SDS011;21687;48.900;9.188;2023-04-03T12:58:13;4.30;;;1.53;;
35578;SDS011;21687;48.900;9.188;2023-04-03T13:03:37;2.43;;;1.50;;
35578;SDS011;21687;48.900;9.188;2023-04-03T13:06:10;2.23;;;1.90;;
35578;SDS011;21687;48.900;9.188;2023-04-03T13:08:53;1.60;;;1.50;;
35578;SDS011;21687;48.900;9.188;2023-04-03T13:11:25;2.23;;;1.40;;
35578;SDS011;21687;48.900;9.188;2023-04-03T13:16:23;2.63;;;1.87;;
35578;SDS011;21687;48.900;9.188;2023-04-03T13:18:50;2.10;;;1.73;;
35578;SDS011;21687;48.900;9.188;2023-04-03T13:21:19;2.50;;;1.87;;
35578;SDS011;21687;48.900;9.188;2023-04-03T13:23:50;2.20;;;2.00;;
35578;SDS011;21687;48.900;9.188;2023-04-03T13:26:20;2.87;;;2.07;;
35578;SDS011;21687;48.900;9.188;2023-04-03T13:28:49;2.40;;;1.90;;
35578;SDS011;21687;48.900;9.188;2023-04-03T13:33:55;2.70;;;1.90;;
35578;SDS011;21687;48.900;9.188;2023-04-03T13:36:38;5.07;;;1.83;;
35578;SDS011;21687;48.900;9.188;2023-04-03T13:39:20;2.50;;;1.90;;
35578;SDS011;21687;48.900;9.188;2023-04-03T13:41:49;3.90;;;1.73;;
35578;SDS011;21687;48.900;9.188;2023-04-03T13:46:46;2.07;;;1.57;;
35578;SDS011;21687;48.900;9.188;2023-04-03T13:49:21;5.23;;;2.00;;
35578;SDS011;21687;48.900;9.188;2023-04-03T13:51:48;1.80;;;1.70;;
35578;SDS011;21687;48.900;9.188;2023-04-03T13:54:33;1.77;;;1.57;;
35578;SDS011;21687;48.900;9.188;2023-04-03T13:57:03;3.77;;;1.97;;
35578;SDS011;21687;48.900;9.188;2023-04-03T13:59:37;2.33;;;1.80;;
35578;SDS011;21687;48.900;9.188;2023-04-03T14:07:11;3.03;;;1.90;;
35578;SDS011;21687;48.900;9.188;2023-04-03T14:09:38;3.03;;;1.80;;
35578;SDS011;21687;48.900;9.188;2023-04-03T14:12:11;1.87;;;1.60;;
35578;SDS011;21687;48.900;9.188;2023-04-03T14:14:39;3.30;;;1.90;;
35578;SDS011;21687;48.900;9.188;2023-04-03T14:17:17;2.13;;;1.87;;
35578;SDS011;21687;48.900;9.188;2023-04-03T14:19:47;1.73;;;1.63;;
35578;SDS011;21687;48.900;9.188;2023-04-03T14:22:16;2.37;;;1.73;;
35578;SDS011;21687;48.900;9.188;2023-04-03T14:24:42;2.97;;;1.80;;
35578;SDS011;21687;48.900;9.188;2023-04-03T14:29:45;1.90;;;1.77;;
35578;SDS011;21687;48.900;9.188;2023-04-03T14:32:13;2.90;;;1.90;;
35578;SDS011;21687;48.900;9.188;2023-04-03T14:34:40;4.27;;;1.67;;
35578;SDS011;21687;48.900;9.188;2023-04-03T14:37:15;2.50;;;1.87;;
35578;SDS011;21687;48.900;9.188;2023-04-03T14:39:44;5.70;;;1.97;;
35578;SDS011;21687;48.900;9.188;2023-04-03T14:42:12;3.37;;;1.60;;
35578;SDS011;21687;48.900;9.188;2023-04-03T14:44:39;2.67;;;1.73;;
35578;SDS011;21687;48.900;9.188;2023-04-03T14:47:09;3.60;;;1.80;;
35578;SDS011;21687;48.900;9.188;2023-04-03T14:49:37;3.10;;;1.50;;
35578;SDS011;21687;48.900;9.188;2023-04-03T14:52:04;1.77;;;1.67;;
35578;SDS011;21687;48.900;9.188;2023-04-03T14:54:30;2.27;;;1.73;;
35578;SDS011;21687;48.900;9.188;2023-04-03T14:56:57;2.83;;;1.83;;
35578;SDS011;21687;48.900;9.188;2023-04-03T14:59:25;4.13;;;1.80;;
35578;SDS011;21687;48.900;9.188;2023-04-03T15:01:53;3.07;;;2.00;;
35578;SDS011;21687;48.900;9.188;2023-04-03T15:04:19;2.50;;;2.30;;
35578;SDS011;21687;48.900;9.188;2023-04-03T15:06:46;4.93;;;2.10;;
35578;SDS011;21687;48.900;9.188;2023-04-03T15:09:24;3.27;;;2.00;;
35578;SDS011;21687;48.900;9.188;2023-04-03T15:11:53;4.20;;;1.90;;
35578;SDS011;21687;48.900;9.188;2023-04-03T15:14:20;2.63;;;1.67;;
35578;SDS011;21687;48.900;9.188;2023-04-03T15:16:46;4.23;;;1.80;;
35578;SDS011;21687;48.900;9.188;2023-04-03T15:19:13;2.47;;;1.63;;
35578;SDS011;21687;48.900;9.188;2023-04-03T15:21:40;2.00;;;1.60;;
35578;SDS011;21687;48.900;9.188;2023-04-03T15:24:06;2.83;;;1.70;;
35578;SDS011;21687;48.900;9.188;2023-04-03T15:26:33;2.30;;;1.90;;
35578;SDS011;21687;48.900;9.188;2023-04-03T15:29:00;2.00;;;1.80;;
35578;SDS011;21687;48.900;9.188;2023-04-03T15:31:27;3.67;;;1.80;;
35578;SDS011;21687;48.900;9.188;2023-04-03T15:33:53;2.20;;;1.70;;
35578;SDS011;21687;48.900;9.188;2023-04-03T15:36:19;2.83;;;1.80;;
35578;SDS011;21687;48.900;9.188;2023-04-03T15:38:46;2.97;;;1.80;;
35578;SDS011;21687;48.900;9.188;2023-04-03T15:41:12;5.83;;;3.60;;
35578;SDS011;21687;48.900;9.188;2023-04-03T15:43:38;14.03;;;6.80;;
35578;SDS011;21687;48.900;9.188;2023-04-03T15:46:05;3.03;;;2.27;;
35578;SDS011;21687;48.900;9.188;2023-04-03T15:48:31;3.73;;;2.07;;
35578;SDS011;21687;48.900;9.188;2023-04-03T15:50:57;3.17;;;1.67;;
35578;SDS011;21687;48.900;9.188;2023-04-03T15:53:24;5.00;;;2.10;;
35578;SDS011;21687;48.900;9.188;2023-04-03T15:55:51;3.47;;;2.17;;
35578;SDS011;21687;48.900;9.188;2023-04-03T15:58:17;3.87;;;1.93;;
35578;SDS011;21687;48.900;9.188;2023-04-03T16:00:44;2.10;;;1.80;;
35578;SDS011;21687;48.900;9.188;2023-04-03T16:03:17;3.67;;;2.27;;
35578;SDS011;21687;48.900;9.188;2023-04-03T16:05:45;3.17;;;2.00;;
35578;SDS011;21687;48.900;9.188;2023-04-03T16:08:12;3.07;;;1.90;;
35578;SDS011;21687;48.900;9.188;2023-04-03T16:10:39;3.10;;;1.80;;
35578;SDS011;21687;48.900;9.188;2023-04-03T16:13:05;5.00;;;1.83;;
35578;SDS011;21687;48.900;9.188;2023-04-03T16:15:32;2.27;;;1.87;;
35578;SDS011;21687;48.900;9.188;2023-04-03T16:17:59;3.93;;;2.00;;
35578;SDS011;21687;48.900;9.188;2023-04-03T16:20:26;4.67;;;2.33;;
35578;SDS011;21687;48.900;9.188;2023-04-03T16:22:53;4.17;;;1.80;;
35578;SDS011;21687;48.900;9.188;2023-04-03T16:25:21;2.23;;;1.97;;
35578;SDS011;21687;48.900;9.188;2023-04-03T16:27:47;2.03;;;1.80;;
35578;SDS011;21687;48.900;9.188;2023-04-03T16:30:13;3.03;;;1.90;;
35578;SDS011;21687;48.900;9.188;2023-04-03T16:32:40;5.13;;;2.37;;
35578;SDS011;21687;48.900;9.188;2023-04-03T16:35:06;4.23;;;2.17;;
35578;SDS011;21687;48.900;9.188;2023-04-03T16:37:35;4.20;;;1.93;;
35578;SDS011;21687;48.900;9.188;2023-04-03T16:40:03;2.13;;;1.67;;
35578;SDS011;21687;48.900;9.188;2023-04-03T16:42:30;4.83;;;2.00;;
35578;SDS011;21687;48.900;9.188;2023-04-03T16:44:56;4.03;;;2.00;;
35578;SDS011;21687;48.900;9.188;2023-04-03T16:47:25;2.73;;;2.07;;
35578;SDS011;21687;48.900;9.188;2023-04-03T16:49:51;4.17;;;1.93;;
35578;SDS011;21687;48.900;9.188;2023-04-03T16:52:17;2.23;;;1.90;;
35578;SDS011;21687;48.900;9.188;2023-04-03T16:54:44;2.03;;;1.83;;
35578;SDS011;21687;48.900;9.188;2023-04-03T16:57:10;4.23;;;2.30;;
35578;SDS011;21687;48.900;9.188;2023-04-03T16:59:36;3.00;;;2.00;;
35578;SDS011;21687;48.900;9.188;2023-04-03T17:02:02;4.37;;;2.57;;